Time;durP1;ratioP1;P1;durP2;ratioP2;P2;SDS_P1;SDS_P2;PMS_P1;PMS_P2;Temp;Humidity;BMP_temperature;BMP_pressure;BME280_temperature;BME280_humidity;BME280_pressure;Samples;Min_cycle;Max_cycle;Signal;HPM_P1;HPM_P2
2023/05/21 00:01:41;;;;;;;5.73;3.30;;;10.80;1.00;;;;;;5075191;28;20871;-69
2023/05/21 00:04:06;;;;;;;3.60;2.70;;;10.80;1.00;;;;;;5078479;28;20474;-69
2023/05/21 00:06:35;;;;;;;3.40;3.10;;;10.80;1.00;;;;;;5074951;28;20409;-69
2023/05/21 00:09:05;;;;;;;8.10;2.93;;;10.80;1.00;;;;;;5074849;28;20178;-67
2023/05/21 00:11:31;;;;;;;4.73;2.80;;;10.90;1.00;;;;;;5074822;28;20448;-68
2023/05/21 00:13:57;;;;;;;2.97;2.77;;;10.90;1.00;;;;;;5079141;28;20410;-69
2023/05/21 00:16:23;;;;;;;5.20;2.33;;;10.90;1.00;;;;;;5089341;28;20438;-68
2023/05/21 00:18:49;;;;;;;3.57;3.27;;;10.90;1.00;;;;;;5087897;28;20429;-68
2023/05/21 00:21:16;;;;;;;3.40;2.60;;;10.90;1.00;;;;;;5073606;28;20410;-68
2023/05/21 00:23:44;;;;;;;5.10;2.90;;;10.90;1.00;;;;;;5080285;28;20204;-68
2023/05/21 00:26:10;;;;;;;5.60;2.87;;;10.80;1.00;;;;;;5094099;28;20907;-67
2023/05/21 00:28:35;;;;;;;3.83;2.70;;;10.90;1.00;;;;;;5089583;28;20455;-68
2023/05/21 00:31:01;;;;;;;4.80;4.07;;;10.90;1.00;;;;;;5092956;28;20195;-68
2023/05/21 00:33:27;;;;;;;3.87;2.77;;;10.80;1.00;;;;;;5074685;28;20673;-69
2023/05/21 00:35:54;;;;;;;6.00;2.90;;;10.80;1.00;;;;;;5095808;28;20250;-67
2023/05/21 00:38:20;;;;;;;6.40;3.00;;;10.80;1.00;;;;;;5075706;28;20416;-68
2023/05/21 00:40:46;;;;;;;2.70;2.00;;;10.80;1.00;;;;;;5074556;28;20420;-67
2023/05/21 00:43:13;;;;;;;6.20;3.13;;;10.80;1.00;;;;;;5092784;28;20460;-68
2023/05/21 00:45:41;;;;;;;7.43;2.87;;;10.70;1.00;;;;;;5095455;28;20431;-67
2023/05/21 00:48:07;;;;;;;5.80;2.87;;;10.70;1.00;;;;;;5077593;28;20921;-69
2023/05/21 00:50:34;;;;;;;6.23;3.10;;;10.70;1.00;;;;;;5074128;28;20458;-67
2023/05/21 00:53:00;;;;;;;7.10;3.27;;;10.70;1.00;;;;;;5090116;28;20431;-67
2023/05/21 00:55:26;;;;;;;4.03;2.90;;;10.70;1.00;;;;;;5087377;28;20412;-68
2023/05/21 00:57:52;;;;;;;4.20;3.37;;;10.70;1.00;;;;;;5095363;28;20533;-68
2023/05/21 01:00:19;;;;;;;4.97;3.00;;;10.70;1.00;;;;;;5088126;28;20681;-68
2023/05/21 01:02:45;;;;;;;5.33;3.50;;;10.70;1.00;;;;;;5074815;28;20428;-68
2023/05/21 01:05:14;;;;;;;8.97;3.30;;;10.70;1.00;;;;;;5083586;28;20437;-68
2023/05/21 01:07:40;;;;;;;4.10;3.03;;;10.60;1.00;;;;;;5073916;28;20730;-69
2023/05/21 01:10:08;;;;;;;3.53;3.00;;;10.60;1.00;;;;;;5080282;28;20986;-72
2023/05/21 01:12:42;;;;;;;4.20;2.93;;;10.60;1.00;;;;;;5074670;28;20416;-68
2023/05/21 01:15:09;;;;;;;4.90;3.57;;;10.60;1.00;;;;;;5076086;28;20424;-68
2023/05/21 01:17:35;;;;;;;3.57;2.70;;;10.60;1.00;;;;;;5095077;28;20367;-68
2023/05/21 01:20:10;;;;;;;4.37;2.77;;;10.60;1.00;;;;;;5090695;28;20387;-70
2023/05/21 01:22:41;;;;;;;3.07;2.87;;;10.50;1.00;;;;;;5074457;28;20506;-68
2023/05/21 01:25:07;;;;;;;5.77;2.73;;;10.60;1.00;;;;;;5076689;28;20950;-70
2023/05/21 01:27:33;;;;;;;4.90;3.33;;;10.60;1.00;;;;;;5077401;28;20845;-67
2023/05/21 01:29:58;;;;;;;5.00;3.30;;;10.60;1.00;;;;;;5075830;28;20432;-67
2023/05/21 01:32:30;;;;;;;3.10;2.50;;;10.60;1.00;;;;;;5092893;28;20718;-68
2023/05/21 01:35:04;;;;;;;6.87;3.30;;;10.60;1.00;;;;;;5092793;28;20638;-67
2023/05/21 01:37:32;;;;;;;3.53;3.23;;;10.70;1.00;;;;;;5093435;28;20374;-68
2023/05/21 01:40:23;;;;;;;5.70;3.20;;;10.70;1.00;;;;;;5075344;28;20416;-68
2023/05/21 01:42:50;;;;;;;4.87;3.30;;;10.70;1.00;;;;;;5074065;28;20408;-70
2023/05/21 01:45:17;;;;;;;4.97;3.10;;;10.70;1.00;;;;;;5093530;28;20386;-69
2023/05/21 01:47:48;;;;;;;3.43;3.13;;;10.70;1.00;;;;;;5094475;28;20443;-69
2023/05/21 01:50:15;;;;;;;11.57;3.77;;;10.70;1.00;;;;;;5072502;28;20458;-68
2023/05/21 01:52:55;;;;;;;3.43;2.60;;;10.70;1.00;;;;;;5073133;28;20873;-70
2023/05/21 01:55:24;;;;;;;4.63;3.03;;;10.70;1.00;;;;;;5093267;28;20432;-67
2023/05/21 01:57:52;;;;;;;6.03;3.50;;;10.70;1.00;;;;;;5094376;28;20896;-68
2023/05/21 02:00:19;;;;;;;3.97;3.27;;;10.60;1.00;;;;;;5074483;28;20439;-69
2023/05/21 02:02:45;;;;;;;6.60;3.00;;;10.60;1.00;;;;;;5073479;28;20511;-70
2023/05/21 02:05:11;;;;;;;5.97;3.40;;;10.70;1.00;;;;;;5088413;28;20981;-69
2023/05/21 02:07:37;;;;;;;5.37;3.37;;;10.70;1.00;;;;;;5093030;28;20201;-67
2023/05/21 02:10:03;;;;;;;10.60;3.50;;;10.60;1.00;;;;;;5078470;28;20177;-68
2023/05/21 02:12:29;;;;;;;3.43;3.10;;;10.70;1.00;;;;;;5073216;28;20384;-67
2023/05/21 02:14:55;;;;;;;3.17;2.97;;;10.70;1.00;;;;;;5079210;28;20449;-70
2023/05/21 02:17:23;;;;;;;3.50;2.77;;;10.70;1.00;;;;;;5073709;28;20167;-69
2023/05/21 02:19:49;;;;;;;8.63;3.40;;;10.70;1.00;;;;;;5084153;28;20502;-68
2023/05/21 02:22:14;;;;;;;6.60;3.20;;;10.70;1.00;;;;;;5088390;28;20524;-68
2023/05/21 02:24:40;;;;;;;4.30;3.20;;;10.70;1.00;;;;;;5082979;28;20469;-67
2023/05/21 02:27:06;;;;;;;5.47;3.40;;;10.70;1.00;;;;;;5093734;28;20166;-70
2023/05/21 02:29:32;;;;;;;7.40;3.70;;;10.60;1.00;;;;;;5085675;28;20239;-67
2023/05/21 02:31:57;;;;;;;5.40;3.23;;;10.60;1.00;;;;;;5072397;28;20243;-67
2023/05/21 02:34:23;;;;;;;7.70;3.90;;;10.60;1.00;;;;;;5076717;28;20403;-67
2023/05/21 02:36:52;;;;;;;8.00;3.97;;;10.60;1.00;;;;;;5072935;28;20690;-69
2023/05/21 02:39:18;;;;;;;3.90;3.53;;;10.60;3.60;;;;;;5076973;28;20178;-68
2023/05/21 02:41:45;;;;;;;7.37;3.60;;;10.60;6.00;;;;;;5072466;28;20466;-69
2023/05/21 02:44:11;;;;;;;6.93;4.53;;;10.50;8.40;;;;;;5079866;28;20927;-67
2023/05/21 02:46:37;;;;;;;5.57;4.50;;;10.50;18.30;;;;;;5093453;28;20426;-69
2023/05/21 02:49:02;;;;;;;4.50;4.07;;;10.50;31.20;;;;;;5084067;28;20642;-69
2023/05/21 02:51:28;;;;;;;4.40;4.00;;;10.40;47.10;;;;;;5081406;28;20284;-68
2023/05/21 02:53:54;;;;;;;4.23;3.37;;;10.50;65.70;;;;;;5084662;28;20208;-69
2023/05/21 02:56:19;;;;;;;5.63;3.57;;;10.60;78.90;;;;;;5071424;28;20185;-67
2023/05/21 02:58:45;;;;;;;4.30;3.90;;;10.60;90.00;;;;;;5078450;28;20319;-69
2023/05/21 03:01:11;;;;;;;4.67;3.40;;;10.60;81.50;;;;;;5092337;28;20511;-69
2023/05/21 03:03:36;;;;;;;4.10;3.70;;;10.60;86.00;;;;;;5089264;28;20205;-69
2023/05/21 03:06:02;;;;;;;6.30;3.63;;;10.60;92.20;;;;;;5079802;28;20186;-69
2023/05/21 03:08:28;;;;;;;4.60;3.80;;;10.60;92.20;;;;;;5090209;28;20500;-69
2023/05/21 03:10:54;;;;;;;4.23;3.80;;;10.60;92.20;;;;;;5080826;28;20318;-69
2023/05/21 03:13:20;;;;;;;10.03;3.70;;;10.60;92.30;;;;;;5091841;28;20553;-69
2023/05/21 03:15:46;;;;;;;3.87;3.47;;;10.60;97.70;;;;;;5092454;28;20511;-68
2023/05/21 03:18:11;;;;;;;5.73;3.70;;;10.70;99.90;;;;;;5092413;28;20174;-69
2023/05/21 03:20:43;;;;;;;4.00;3.70;;;10.70;99.90;;;;;;5075301;28;20627;-69
2023/05/21 03:23:11;;;;;;;7.03;4.23;;;10.70;99.90;;;;;;5090567;28;20203;-69
2023/05/21 03:25:37;;;;;;;7.23;4.00;;;10.70;99.90;;;;;;5093131;28;20417;-70
2023/05/21 03:28:03;;;;;;;8.37;3.90;;;10.60;99.90;;;;;;5084251;28;20402;-69
2023/05/21 03:30:28;;;;;;;6.60;4.20;;;10.70;99.90;;;;;;5093868;28;20425;-69
2023/05/21 03:32:55;;;;;;;12.33;4.70;;;10.70;99.90;;;;;;5095124;28;20196;-67
2023/05/21 03:35:20;;;;;;;5.40;4.47;;;10.70;99.90;;;;;;5089224;28;20225;-70
2023/05/21 03:37:46;;;;;;;4.93;4.17;;;10.60;99.90;;;;;;5088785;28;20901;-68
2023/05/21 03:40:12;;;;;;;6.13;4.57;;;10.70;99.90;;;;;;5095904;28;20174;-69
2023/05/21 03:42:38;;;;;;;5.67;4.60;;;10.70;99.90;;;;;;5085827;28;20327;-67
2023/05/21 03:45:05;;;;;;;4.50;4.10;;;10.80;99.90;;;;;;5076458;28;20458;-69
2023/05/21 03:47:31;;;;;;;6.80;4.90;;;10.70;99.90;;;;;;5079845;28;20222;-68
2023/05/21 03:49:56;;;;;;;7.50;5.23;;;10.80;99.90;;;;;;5075304;28;20493;-70
2023/05/21 03:52:22;;;;;;;9.50;4.93;;;10.80;99.90;;;;;;5085008;28;20268;-67
2023/05/21 03:54:48;;;;;;;13.37;6.73;;;10.80;99.90;;;;;;5096600;28;20193;-69
2023/05/21 03:57:13;;;;;;;10.50;5.23;;;10.80;99.90;;;;;;5085406;28;20170;-69
2023/05/21 03:59:39;;;;;;;10.07;5.60;;;10.80;99.90;;;;;;5076111;28;20209;-70
2023/05/21 04:02:05;;;;;;;8.77;6.00;;;10.80;99.90;;;;;;5078465;28;20547;-67
2023/05/21 04:04:32;;;;;;;8.80;6.30;;;10.70;99.90;;;;;;5088899;28;20185;-69
2023/05/21 04:06:58;;;;;;;13.83;5.63;;;10.80;99.90;;;;;;5086200;28;20170;-67
2023/05/21 04:09:24;;;;;;;11.07;6.10;;;10.90;99.90;;;;;;5074679;28;20421;-69
2023/05/21 04:11:49;;;;;;;10.13;6.20;;;10.90;99.90;;;;;;5082149;28;20434;-70
2023/05/21 04:14:16;;;;;;;9.07;5.20;;;10.90;99.90;;;;;;5095539;28;20228;-69
2023/05/21 04:16:42;;;;;;;6.43;5.50;;;10.90;99.90;;;;;;5089628;28;20162;-67
2023/05/21 04:19:08;;;;;;;6.57;5.70;;;11.00;99.90;;;;;;5075440;28;20477;-67
2023/05/21 04:21:35;;;;;;;11.73;5.70;;;11.00;99.90;;;;;;5079258;28;20891;-70
2023/05/21 04:24:00;;;;;;;10.07;5.77;;;11.00;99.90;;;;;;5095798;28;20608;-69
2023/05/21 04:26:26;;;;;;;10.97;5.83;;;11.00;99.90;;;;;;5091967;28;20483;-69
2023/05/21 04:28:53;;;;;;;10.97;6.10;;;11.10;99.90;;;;;;5074987;28;20146;-67
2023/05/21 04:31:19;;;;;;;11.00;5.80;;;11.10;99.90;;;;;;5075263;28;20745;-69
2023/05/21 04:33:44;;;;;;;10.70;6.17;;;11.10;99.90;;;;;;5094679;28;20433;-67
2023/05/21 04:36:11;;;;;;;8.90;8.00;;;11.10;99.90;;;;;;5095738;28;20165;-68
2023/05/21 04:38:38;;;;;;;9.10;5.10;;;11.20;99.90;;;;;;5075967;28;20180;-68
2023/05/21 04:41:05;;;;;;;10.43;5.80;;;11.30;99.90;;;;;;5074301;28;20382;-69
2023/05/21 04:43:31;;;;;;;15.53;7.30;;;11.30;99.90;;;;;;5091387;28;20534;-69
2023/05/21 04:45:57;;;;;;;9.57;5.53;;;11.30;99.90;;;;;;5094809;28;20374;-69
2023/05/21 04:48:23;;;;;;;6.37;5.77;;;11.40;99.90;;;;;;5077801;28;20190;-69
2023/05/21 04:50:49;;;;;;;6.17;5.57;;;11.50;99.90;;;;;;5074386;28;20221;-69
2023/05/21 04:53:16;;;;;;;13.43;6.67;;;11.60;99.90;;;;;;5076215;28;20460;-68
2023/05/21 04:55:42;;;;;;;9.17;6.27;;;11.60;99.90;;;;;;5075086;28;20440;-69
2023/05/21 04:58:09;;;;;;;11.13;6.70;;;11.60;99.90;;;;;;5090548;28;20404;-69
2023/05/21 05:00:36;;;;;;;9.43;7.80;;;11.60;99.90;;;;;;5093167;28;20432;-67
2023/05/21 05:03:02;;;;;;;15.73;6.50;;;11.60;99.90;;;;;;5080435;28;20551;-69
2023/05/21 05:05:28;;;;;;;10.50;5.73;;;11.70;99.90;;;;;;5073077;28;20797;-69
2023/05/21 05:07:55;;;;;;;7.80;5.90;;;11.70;99.90;;;;;;5078485;28;20467;-68
2023/05/21 05:10:20;;;;;;;9.03;5.90;;;11.80;99.90;;;;;;5073708;28;20186;-68
2023/05/21 05:12:47;;;;;;;8.50;6.07;;;11.80;99.90;;;;;;5074585;28;20413;-69
2023/05/21 05:15:13;;;;;;;7.97;5.63;;;11.90;99.90;;;;;;5074119;28;20182;-68
2023/05/21 05:17:39;;;;;;;9.37;5.50;;;11.90;99.90;;;;;;5085836;28;20431;-69
2023/05/21 05:20:07;;;;;;;9.37;6.67;;;12.00;99.90;;;;;;5093223;28;20192;-72
2023/05/21 05:22:32;;;;;;;10.30;6.40;;;12.00;99.90;;;;;;5078386;28;20242;-69
2023/05/21 05:24:58;;;;;;;8.07;5.10;;;12.10;99.90;;;;;;5073804;28;20775;-69
2023/05/21 05:27:24;;;;;;;9.63;5.97;;;12.20;99.90;;;;;;5086743;28;20174;-67
2023/05/21 05:29:50;;;;;;;10.20;5.87;;;12.20;99.90;;;;;;5093516;28;20213;-70
2023/05/21 05:32:16;;;;;;;8.47;6.10;;;12.30;99.90;;;;;;5081758;28;20445;-68
2023/05/21 05:34:43;;;;;;;11.07;5.30;;;12.40;99.90;;;;;;5073374;28;20175;-70
2023/05/21 05:37:09;;;;;;;9.77;4.90;;;12.50;99.90;;;;;;5078483;28;21059;-68
2023/05/21 05:39:35;;;;;;;7.40;5.37;;;12.50;99.90;;;;;;5073842;28;20379;-69
2023/05/21 05:42:01;;;;;;;11.30;7.37;;;12.60;99.90;;;;;;5072001;28;20185;-69
2023/05/21 05:44:26;;;;;;;14.60;7.00;;;12.70;99.90;;;;;;5073785;28;20236;-69
2023/05/21 05:46:52;;;;;;;7.67;4.73;;;12.70;99.90;;;;;;5080136;28;20260;-68
2023/05/21 05:49:18;;;;;;;8.50;6.07;;;12.70;99.90;;;;;;5093014;28;20181;-67
2023/05/21 05:51:44;;;;;;;9.07;6.37;;;12.80;99.90;;;;;;5089643;28;20920;-67
2023/05/21 05:54:10;;;;;;;11.70;5.87;;;12.90;99.90;;;;;;5093180;28;20185;-68
2023/05/21 05:56:35;;;;;;;10.70;6.57;;;13.00;99.90;;;;;;5091123;28;20182;-68
2023/05/21 05:59:01;;;;;;;11.83;6.43;;;13.00;99.90;;;;;;5073674;28;20669;-68
2023/05/21 06:01:27;;;;;;;6.70;4.97;;;13.10;99.90;;;;;;5071840;28;20174;-66
2023/05/21 06:03:52;;;;;;;9.87;7.10;;;13.20;99.90;;;;;;5093847;28;20193;-68
2023/05/21 06:06:18;;;;;;;7.90;4.93;;;13.30;99.90;;;;;;5092989;28;20187;-66
2023/05/21 06:08:45;;;;;;;6.17;5.67;;;13.30;99.90;;;;;;5074133;28;20631;-67
2023/05/21 06:11:10;;;;;;;8.80;5.97;;;13.30;99.90;;;;;;5072642;28;20196;-66
2023/05/21 06:13:36;;;;;;;9.47;5.27;;;13.30;99.90;;;;;;5090703;28;20409;-68
2023/05/21 06:16:02;;;;;;;8.20;4.77;;;13.20;99.90;;;;;;5092659;28;20205;-68
2023/05/21 06:18:28;;;;;;;7.20;5.50;;;13.40;99.90;;;;;;5077920;28;20545;-71
2023/05/21 06:20:54;;;;;;;11.10;6.27;;;13.50;99.90;;;;;;5071348;28;20415;-69
2023/05/21 06:23:23;;;;;;;6.50;5.10;;;13.60;99.90;;;;;;5076720;28;20201;-68
2023/05/21 06:25:48;;;;;;;8.13;5.47;;;13.70;99.90;;;;;;5073493;28;20622;-69
2023/05/21 06:28:14;;;;;;;9.27;5.67;;;13.70;99.90;;;;;;5077459;28;20455;-70
2023/05/21 06:30:40;;;;;;;15.53;5.87;;;13.70;99.90;;;;;;5092756;28;20216;-68
2023/05/21 06:33:06;;;;;;;8.20;6.03;;;13.70;99.90;;;;;;5078811;28;20951;-68
2023/05/21 06:35:33;;;;;;;9.60;6.03;;;13.80;99.90;;;;;;5093695;28;20166;-69
2023/05/21 06:37:59;;;;;;;10.77;6.10;;;13.70;99.90;;;;;;5075664;28;20198;-68
2023/05/21 06:40:24;;;;;;;7.57;5.90;;;13.70;99.90;;;;;;5071358;28;20430;-68
2023/05/21 06:42:50;;;;;;;8.93;6.67;;;13.90;99.90;;;;;;5073599;28;20202;-70
2023/05/21 06:45:16;;;;;;;11.30;6.90;;;13.90;99.90;;;;;;5073149;28;20593;-69
2023/05/21 06:47:42;;;;;;;15.13;7.20;;;14.00;99.90;;;;;;5084839;28;20224;-67
2023/05/21 06:50:08;;;;;;;9.00;5.93;;;14.00;99.90;;;;;;5090673;28;20189;-71
2023/05/21 06:52:34;;;;;;;11.37;5.77;;;14.10;99.90;;;;;;5071640;28;20194;-68
2023/05/21 06:54:59;;;;;;;8.07;6.17;;;14.20;99.90;;;;;;5082306;28;20481;-68
2023/05/21 06:57:25;;;;;;;12.27;5.30;;;14.30;99.90;;;;;;5083560;28;20396;-67
2023/05/21 06:59:51;;;;;;;7.80;5.97;;;14.30;99.90;;;;;;5093187;28;20207;-70
2023/05/21 07:02:16;;;;;;;10.53;5.80;;;14.40;99.90;;;;;;5090068;28;20182;-69
2023/05/21 07:04:42;;;;;;;12.17;6.23;;;14.50;99.90;;;;;;5073507;28;20646;-70
2023/05/21 07:07:08;;;;;;;7.43;5.10;;;14.50;99.90;;;;;;5085538;28;20185;-69
2023/05/21 07:09:34;;;;;;;6.13;5.53;;;14.50;99.90;;;;;;5078076;28;20253;-70
2023/05/21 07:12:00;;;;;;;8.33;5.70;;;14.60;99.90;;;;;;5076108;28;20198;-67
2023/05/21 07:14:26;;;;;;;7.03;4.77;;;14.60;99.90;;;;;;5080711;28;20190;-70
2023/05/21 07:16:52;;;;;;;11.37;5.10;;;14.80;99.90;;;;;;5077639;28;20920;-72
2023/05/21 07:19:18;;;;;;;9.10;5.83;;;14.90;99.90;;;;;;5081390;28;20519;-68
2023/05/21 07:21:44;;;;;;;7.00;6.07;;;15.00;99.90;;;;;;5075984;28;20642;-71
2023/05/21 07:24:10;;;;;;;7.70;5.57;;;15.10;99.90;;;;;;5087873;28;20247;-72
2023/05/21 07:26:36;;;;;;;13.67;6.33;;;15.00;99.90;;;;;;5094739;28;20553;-68
2023/05/21 07:29:02;;;;;;;13.60;6.23;;;15.00;99.90;;;;;;5089489;28;20189;-68
2023/05/21 07:31:27;;;;;;;10.10;6.10;;;15.10;99.90;;;;;;5089286;28;20194;-72
2023/05/21 07:33:53;;;;;;;9.10;6.30;;;15.10;99.90;;;;;;5096682;28;20430;-67
2023/05/21 07:36:35;;;;;;;12.00;5.53;;;15.10;99.90;;;;;;5096697;28;20170;-71
2023/05/21 07:39:02;;;;;;;17.90;6.10;;;15.20;99.90;;;;;;5096890;28;20161;-68
2023/05/21 07:41:28;;;;;;;13.23;6.00;;;15.30;99.90;;;;;;5094524;28;20419;-71
2023/05/21 07:43:54;;;;;;;10.53;5.80;;;15.40;99.90;;;;;;5094256;28;20476;-72
2023/05/21 07:46:20;;;;;;;8.27;5.70;;;15.40;99.90;;;;;;5076536;28;20402;-72
2023/05/21 07:52:04;;;;;;;7.83;5.07;;;15.50;99.90;;;;;;5064388;28;20205;-72
2023/05/21 07:54:30;;;;;;;8.10;5.20;;;15.60;99.90;;;;;;5075012;28;20932;-68
2023/05/21 07:56:56;;;;;;;8.83;5.47;;;15.70;99.90;;;;;;5076228;28;20761;-72
2023/05/21 07:59:21;;;;;;;6.40;4.87;;;15.90;99.90;;;;;;5090672;28;20438;-70
2023/05/21 08:01:48;;;;;;;7.23;5.13;;;15.90;99.90;;;;;;5095372;28;20606;-69
2023/05/21 08:04:13;;;;;;;10.80;5.73;;;16.00;99.90;;;;;;5096377;28;20177;-72
2023/05/21 08:06:39;;;;;;;8.07;5.07;;;15.90;99.90;;;;;;5094645;28;20494;-71
2023/05/21 08:09:05;;;;;;;7.90;5.10;;;16.00;99.90;;;;;;5096318;28;20189;-68
2023/05/21 08:11:31;;;;;;;9.43;5.73;;;16.30;99.90;;;;;;5094034;28;20190;-72
2023/05/21 08:13:57;;;;;;;11.23;5.53;;;16.40;99.90;;;;;;5095915;28;20427;-72
2023/05/21 08:16:23;;;;;;;8.10;6.30;;;16.50;94.80;;;;;;5095240;28;20400;-72
2023/05/21 08:18:50;;;;;;;4.80;4.40;;;16.50;94.50;;;;;;5096368;28;20194;-71
2023/05/21 08:21:16;;;;;;;10.90;5.97;;;16.50;94.40;;;;;;5094826;28;20172;-68
2023/05/21 08:23:42;;;;;;;10.90;5.90;;;16.50;95.50;;;;;;5078386;28;20547;-71
2023/05/21 08:26:08;;;;;;;8.67;6.13;;;16.60;94.50;;;;;;5075757;28;20264;-69
2023/05/21 08:28:38;;;;;;;8.27;6.17;;;16.80;94.50;;;;;;5074431;28;20412;-71
2023/05/21 08:31:06;;;;;;;7.30;5.77;;;16.80;88.10;;;;;;5081711;28;20967;-68
2023/05/21 08:33:35;;;;;;;10.60;6.70;;;16.70;65.20;;;;;;5082845;28;20792;-68
2023/05/21 08:36:02;;;;;;;9.67;6.87;;;16.60;72.00;;;;;;5074308;28;20440;-72
2023/05/21 08:38:28;;;;;;;9.00;6.70;;;16.80;79.20;;;;;;5075615;28;20401;-72
2023/05/21 08:40:54;;;;;;;15.87;6.23;;;16.80;88.70;;;;;;5073333;28;20420;-71
2023/05/21 08:43:21;;;;;;;12.43;7.20;;;17.00;80.90;;;;;;5072946;28;20193;-69
2023/05/21 08:45:56;;;;;;;9.20;5.80;;;16.80;52.00;;;;;;5075354;28;20443;-71
2023/05/21 08:48:22;;;;;;;9.10;8.10;;;16.70;53.00;;;;;;5090603;28;20446;-69
2023/05/21 08:50:53;;;;;;;10.87;6.20;;;16.70;57.80;;;;;;5094605;28;20990;-72
2023/05/21 08:53:19;;;;;;;8.43;6.27;;;16.70;66.70;;;;;;5095381;28;20431;-69
2023/05/21 08:55:49;;;;;;;12.83;7.30;;;16.80;71.10;;;;;;5095402;28;20403;-71
2023/05/21 08:58:24;;;;;;;6.67;6.07;;;16.90;60.80;;;;;;5094211;28;20963;-69
2023/05/21 09:00:50;;;;;;;8.60;6.20;;;17.10;72.50;;;;;;5093680;28;20419;-69
2023/05/21 09:03:55;;;;;;;6.77;5.67;;;17.30;67.50;;;;;;5086382;28;20459;-68
2023/05/21 09:06:22;;;;;;;13.10;7.00;;;17.50;64.10;;;;;;5074751;28;20400;-69
2023/05/21 09:08:56;;;;;;;8.87;6.57;;;17.60;53.20;;;;;;5074955;28;20413;-69
2023/05/21 09:11:23;;;;;;;9.40;6.10;;;17.70;51.80;;;;;;5073973;28;20845;-71
2023/05/21 09:13:51;;;;;;;11.73;6.67;;;17.70;42.90;;;;;;5073429;28;20486;-69
2023/05/21 09:16:17;;;;;;;10.50;6.47;;;17.70;34.20;;;;;;5072769;28;20400;-69
2023/05/21 09:18:43;;;;;;;10.70;6.43;;;17.60;19.00;;;;;;5078739;28;20474;-69
2023/05/21 09:21:24;;;;;;;7.77;6.87;;;17.60;13.90;;;;;;5092676;28;20169;-71
2023/05/21 09:23:58;;;;;;;10.10;6.73;;;17.50;13.10;;;;;;5094808;28;20474;-68
2023/05/21 09:26:25;;;;;;;16.37;7.17;;;17.60;26.40;;;;;;5095339;28;20403;-70
2023/05/21 09:31:44;;;;;;;8.87;6.57;;;17.80;19.20;;;;;;5050361;28;20457;-68
2023/05/21 09:34:12;;;;;;;12.63;6.70;;;17.90;8.80;;;;;;5088373;28;20424;-71
2023/05/21 09:36:39;;;;;;;11.97;7.30;;;17.70;1.00;;;;;;5094559;28;20467;-68
2023/05/21 09:39:05;;;;;;;7.97;6.93;;;17.70;1.00;;;;;;5093759;28;20438;-69
2023/05/21 09:41:39;;;;;;;8.10;7.20;;;17.60;1.00;;;;;;5093773;28;20169;-69
2023/05/21 09:44:05;;;;;;;9.23;6.60;;;17.60;1.00;;;;;;5094496;28;20196;-71
2023/05/21 09:46:41;;;;;;;7.60;6.60;;;17.70;9.40;;;;;;5093282;28;20538;-71
2023/05/21 09:49:22;;;;;;;8.63;7.23;;;17.80;3.80;;;;;;5094592;28;20399;-68
2023/05/21 09:51:48;;;;;;;8.40;7.03;;;17.60;1.00;;;;;;5093408;28;20443;-67
2023/05/21 09:54:14;;;;;;;8.50;7.57;;;17.60;1.00;;;;;;5093794;28;20476;-67
2023/05/21 09:56:40;;;;;;;8.70;6.60;;;17.50;1.00;;;;;;5093730;28;20531;-67
2023/05/21 09:59:06;;;;;;;11.13;6.57;;;17.50;1.00;;;;;;5093193;28;20462;-68
2023/05/21 10:01:33;;;;;;;8.10;6.90;;;17.70;1.00;;;;;;5091821;28;20169;-67
2023/05/21 10:04:01;;;;;;;6.70;5.83;;;17.80;1.00;;;;;;5094078;28;20472;-68
2023/05/21 10:06:29;;;;;;;12.03;6.77;;;18.20;3.60;;;;;;5092685;28;20443;-69
2023/05/21 10:08:58;;;;;;;13.73;6.47;;;18.70;1.00;;;;;;5093001;28;20435;-68
2023/05/21 10:11:30;;;;;;;7.73;6.50;;;19.20;3.00;;;;;;5092985;28;20857;-72
2023/05/21 10:14:07;;;;;;;11.47;7.23;;;19.50;1.00;;;;;;5078961;28;20456;-69
2023/05/21 10:16:35;;;;;;;7.30;6.20;;;19.80;1.00;;;;;;5073026;28;20454;-72
2023/05/21 10:19:03;;;;;;;8.40;6.63;;;20.10;1.00;;;;;;5079414;28;20971;-70
2023/05/21 10:21:32;;;;;;;9.10;6.00;;;20.00;1.00;;;;;;5082860;28;20833;-69
2023/05/21 10:24:00;;;;;;;11.00;6.10;;;20.00;1.00;;;;;;5090894;28;20588;-71
2023/05/21 10:26:26;;;;;;;11.20;6.27;;;20.30;1.00;;;;;;5073010;28;20465;-71
2023/05/21 10:28:55;;;;;;;14.60;6.23;;;20.30;1.00;;;;;;5073653;28;20491;-70
2023/05/21 10:31:22;;;;;;;6.90;6.20;;;19.90;1.00;;;;;;5072523;28;20506;-68
2023/05/21 10:33:48;;;;;;;10.30;5.57;;;19.60;1.00;;;;;;5072809;28;20457;-70
2023/05/21 10:36:17;;;;;;;6.73;5.37;;;19.60;1.00;;;;;;5089151;28;20447;-70
2023/05/21 10:38:44;;;;;;;8.40;7.50;;;19.60;1.00;;;;;;5073417;28;20905;-71
2023/05/21 10:41:11;;;;;;;19.53;9.13;;;19.50;1.00;;;;;;5070544;28;20421;-72
2023/05/21 10:43:49;;;;;;;11.53;7.00;;;19.40;1.00;;;;;;5073240;28;20428;-70
2023/05/21 10:46:59;;;;;;;9.27;6.73;;;19.70;1.00;;;;;;5073401;28;20406;-72
2023/05/21 10:49:42;;;;;;;8.03;6.67;;;19.90;1.00;;;;;;5072843;28;20519;-69
2023/05/21 10:52:21;;;;;;;6.77;6.13;;;19.70;1.00;;;;;;5071399;28;20460;-69
2023/05/21 10:55:16;;;;;;;7.00;5.77;;;19.70;1.00;;;;;;5073252;28;20400;-69
2023/05/21 10:57:56;;;;;;;10.37;6.93;;;19.50;1.00;;;;;;5074939;28;20878;-73
2023/05/21 11:00:24;;;;;;;7.07;5.53;;;19.50;1.00;;;;;;5080063;28;20464;-70
2023/05/21 11:02:51;;;;;;;8.37;6.80;;;19.80;1.00;;;;;;5071726;28;20957;-72
2023/05/21 11:05:49;;;;;;;7.50;6.80;;;20.00;1.00;;;;;;5073118;28;20997;-69
2023/05/21 11:08:36;;;;;;;12.47;7.53;;;19.90;1.00;;;;;;5071186;28;20425;-70
2023/05/21 11:11:02;;;;;;;13.90;6.63;;;20.10;1.00;;;;;;5071734;28;20455;-72
2023/05/21 11:13:49;;;;;;;9.10;6.23;;;20.30;1.00;;;;;;5072567;28;20562;-70
2023/05/21 11:16:15;;;;;;;13.60;7.53;;;20.60;1.00;;;;;;5072761;28;20928;-69
2023/05/21 11:18:41;;;;;;;11.20;7.33;;;20.60;1.00;;;;;;5073201;28;20889;-69
2023/05/21 11:21:19;;;;;;;7.93;5.90;;;20.40;1.00;;;;;;5071024;28;20466;-72
2023/05/21 11:24:18;;;;;;;8.00;6.20;;;20.60;1.00;;;;;;5072766;28;20217;-70
2023/05/21 11:26:46;;;;;;;8.50;6.60;;;20.80;1.00;;;;;;5068070;28;20507;-72
2023/05/21 11:29:13;;;;;;;11.30;6.60;;;20.90;1.00;;;;;;5083899;28;20523;-71
2023/05/21 11:31:44;;;;;;;12.60;7.20;;;21.00;1.00;;;;;;5092018;28;20512;-72
2023/05/21 11:34:11;;;;;;;7.50;6.37;;;21.20;1.00;;;;;;5093361;28;20415;-72
2023/05/21 11:36:38;;;;;;;9.10;6.40;;;21.70;1.00;;;;;;5093249;28;20388;-72
2023/05/21 11:39:14;;;;;;;10.07;7.13;;;21.90;1.00;;;;;;5092258;28;20920;-69
2023/05/21 11:41:57;;;;;;;6.37;5.73;;;22.30;1.00;;;;;;5091064;28;20900;-73
2023/05/21 11:44:42;;;;;;;15.43;7.97;;;22.80;1.00;;;;;;5092577;28;21008;-72
2023/05/21 11:47:10;;;;;;;9.50;8.00;;;22.80;1.00;;;;;;5091581;28;20764;-73
2023/05/21 11:49:37;;;;;;;8.23;7.47;;;22.40;1.00;;;;;;5071384;28;20420;-72
2023/05/21 11:52:07;;;;;;;6.93;6.30;;;22.70;1.00;;;;;;5092576;28;20459;-72
2023/05/21 11:54:54;;;;;;;7.33;6.33;;;23.30;1.00;;;;;;5096549;28;20468;-72
2023/05/21 11:57:21;;;;;;;11.53;7.23;;;23.60;1.00;;;;;;5096572;28;20714;-72
2023/05/21 11:59:50;;;;;;;8.37;7.27;;;23.70;1.00;;;;;;5096510;28;20403;-72
2023/05/21 12:02:20;;;;;;;8.13;7.00;;;24.00;1.00;;;;;;5094920;28;20868;-71
2023/05/21 12:04:48;;;;;;;7.97;6.87;;;23.90;1.00;;;;;;5095369;28;20966;-73
2023/05/21 12:07:15;;;;;;;9.93;7.70;;;23.50;1.00;;;;;;5096435;28;20403;-71
2023/05/21 12:09:46;;;;;;;12.30;7.10;;;23.30;1.00;;;;;;5096201;28;20399;-71
2023/05/21 12:12:17;;;;;;;8.10;6.63;;;23.40;1.00;;;;;;5095292;28;20485;-72
2023/05/21 12:14:51;;;;;;;10.20;7.20;;;23.60;1.00;;;;;;5096269;28;20396;-72
2023/05/21 12:17:26;;;;;;;12.10;6.70;;;23.70;1.00;;;;;;5096114;28;20388;-71
2023/05/21 12:19:54;;;;;;;10.93;7.10;;;23.70;1.00;;;;;;5080333;28;20460;-69
2023/05/21 12:22:22;;;;;;;7.63;6.93;;;23.20;1.00;;;;;;5072768;28;20436;-72
2023/05/21 12:24:47;;;;;;;9.70;8.20;;;23.00;1.00;;;;;;5085023;28;20478;-67
2023/05/21 12:27:15;;;;;;;9.87;8.03;;;23.40;1.00;;;;;;5080846;28;20976;-68
2023/05/21 12:29:45;;;;;;;7.70;6.90;;;23.40;1.00;;;;;;5075312;28;20166;-69
2023/05/21 12:32:12;;;;;;;7.83;7.03;;;23.80;1.00;;;;;;5073089;28;20855;-67
2023/05/21 12:34:47;;;;;;;11.17;8.20;;;24.00;1.00;;;;;;5075481;28;20393;-70
2023/05/21 12:37:22;;;;;;;9.50;7.67;;;23.70;1.00;;;;;;5083723;28;20451;-70
2023/05/21 12:39:51;;;;;;;11.73;8.07;;;23.60;1.00;;;;;;5095193;28;20422;-67
2023/05/21 12:42:26;;;;;;;12.97;8.17;;;23.50;1.00;;;;;;5090605;28;20427;-69
2023/05/21 12:44:53;;;;;;;9.00;7.80;;;23.40;1.00;;;;;;5095686;28;20926;-69
2023/05/21 12:47:25;;;;;;;17.40;8.33;;;23.50;1.00;;;;;;5095652;28;20450;-69
2023/05/21 12:49:56;;;;;;;14.03;7.23;;;23.80;1.00;;;;;;5093971;28;20435;-70
2023/05/21 12:52:23;;;;;;;8.63;6.80;;;24.10;1.00;;;;;;5088749;28;20505;-71
2023/05/21 12:54:51;;;;;;;11.17;7.10;;;23.70;1.00;;;;;;5095252;28;20408;-73
2023/05/21 12:57:22;;;;;;;10.30;7.57;;;23.80;1.00;;;;;;5092857;28;20423;-70
2023/05/21 12:59:57;;;;;;;8.70;7.80;;;23.80;1.00;;;;;;5095210;28;20388;-76